sensor_id;sensor_type;location;lat;lon;timestamp;temperature;humidity
23869;DHT22;12115;47.128;15.422;2023-06-26T00:00:09;17.60;99.90
23869;DHT22;12115;47.128;15.422;2023-06-26T00:02:38;17.60;99.90
23869;DHT22;12115;47.128;15.422;2023-06-26T00:05:05;17.60;99.90
23869;DHT22;12115;47.128;15.422;2023-06-26T00:07:32;17.60;99.90
23869;DHT22;12115;47.128;15.422;2023-06-26T00:10:05;17.60;99.90
23869;DHT22;12115;47.128;15.422;2023-06-26T00:12:32;17.50;99.90
23869;DHT22;12115;47.128;15.422;2023-06-26T00:14:59;17.50;99.90
23869;DHT22;12115;47.128;15.422;2023-06-26T00:17:27;17.50;99.90
23869;DHT22;12115;47.128;15.422;2023-06-26T00:19:54;17.40;99.90
23869;DHT22;12115;47.128;15.422;2023-06-26T00:22:21;17.40;99.90
23869;DHT22;12115;47.128;15.422;2023-06-26T00:24:48;17.30;99.90
23869;DHT22;12115;47.128;15.422;2023-06-26T00:27:15;17.20;99.90
23869;DHT22;12115;47.128;15.422;2023-06-26T00:29:43;17.10;99.90
23869;DHT22;12115;47.128;15.422;2023-06-26T00:32:10;17.20;99.90
23869;DHT22;12115;47.128;15.422;2023-06-26T00:34:37;17.10;99.90
23869;DHT22;12115;47.128;15.422;2023-06-26T00:37:04;17.10;99.90
23869;DHT22;12115;47.128;15.422;2023-06-26T00:39:31;17.10;99.90
23869;DHT22;12115;47.128;15.422;2023-06-26T00:42:00;17.00;99.90
23869;DHT22;12115;47.128;15.422;2023-06-26T00:44:27;17.00;99.90
23869;DHT22;12115;47.128;15.422;2023-06-26T00:46:55;16.90;99.90
23869;DHT22;12115;47.128;15.422;2023-06-26T00:49:26;16.90;99.90
23869;DHT22;12115;47.128;15.422;2023-06-26T00:51:54;16.90;99.90
23869;DHT22;12115;47.128;15.422;2023-06-26T00:54:22;16.80;99.90
23869;DHT22;12115;47.128;15.422;2023-06-26T00:56:49;16.80;99.90
23869;DHT22;12115;47.128;15.422;2023-06-26T00:59:16;16.80;99.90
23869;DHT22;12115;47.128;15.422;2023-06-26T01:01:43;16.80;99.90
23869;DHT22;12115;47.128;15.422;2023-06-26T01:04:10;16.70;99.90
23869;DHT22;12115;47.128;15.422;2023-06-26T01:06:48;16.70;99.90
23869;DHT22;12115;47.128;15.422;2023-06-26T01:09:20;16.60;99.90
23869;DHT22;12115;47.128;15.422;2023-06-26T01:11:50;16.50;99.90
23869;DHT22;12115;47.128;15.422;2023-06-26T01:14:17;16.40;99.90
23869;DHT22;12115;47.128;15.422;2023-06-26T01:16:45;16.40;99.90
23869;DHT22;12115;47.128;15.422;2023-06-26T01:19:20;16.40;99.90
23869;DHT22;12115;47.128;15.422;2023-06-26T01:21:58;16.40;99.90
23869;DHT22;12115;47.128;15.422;2023-06-26T01:24:32;16.40;99.90
23869;DHT22;12115;47.128;15.422;2023-06-26T01:27:01;16.30;99.90
23869;DHT22;12115;47.128;15.422;2023-06-26T01:29:30;16.20;99.90
23869;DHT22;12115;47.128;15.422;2023-06-26T01:31:59;16.20;99.90
23869;DHT22;12115;47.128;15.422;2023-06-26T01:34:27;16.10;99.90
23869;DHT22;12115;47.128;15.422;2023-06-26T01:36:55;16.20;99.90
23869;DHT22;12115;47.128;15.422;2023-06-26T01:39:25;16.10;99.90
23869;DHT22;12115;47.128;15.422;2023-06-26T01:41:52;16.10;99.90
23869;DHT22;12115;47.128;15.422;2023-06-26T01:44:29;16.10;99.90
23869;DHT22;12115;47.128;15.422;2023-06-26T01:47:04;16.10;99.90
23869;DHT22;12115;47.128;15.422;2023-06-26T01:49:52;16.00;99.90
23869;DHT22;12115;47.128;15.422;2023-06-26T01:52:41;16.00;99.90
23869;DHT22;12115;47.128;15.422;2023-06-26T01:55:16;16.00;99.90
23869;DHT22;12115;47.128;15.422;2023-06-26T01:57:45;16.00;99.90
23869;DHT22;12115;47.128;15.422;2023-06-26T02:00:18;15.90;99.90
23869;DHT22;12115;47.128;15.422;2023-06-26T02:02:47;15.90;99.90
23869;DHT22;12115;47.128;15.422;2023-06-26T02:05:14;15.90;99.90
23869;DHT22;12115;47.128;15.422;2023-06-26T02:07:41;15.80;99.90
23869;DHT22;12115;47.128;15.422;2023-06-26T02:10:09;15.80;99.90
23869;DHT22;12115;47.128;15.422;2023-06-26T02:12:37;15.70;99.90
23869;DHT22;12115;47.128;15.422;2023-06-26T02:15:04;15.60;99.90
23869;DHT22;12115;47.128;15.422;2023-06-26T02:17:32;15.60;99.90
23869;DHT22;12115;47.128;15.422;2023-06-26T02:19:59;15.60;99.90
23869;DHT22;12115;47.128;15.422;2023-06-26T02:22:26;15.60;99.90
23869;DHT22;12115;47.128;15.422;2023-06-26T02:24:55;15.60;99.90
23869;DHT22;12115;47.128;15.422;2023-06-26T02:27:22;15.60;99.90
23869;DHT22;12115;47.128;15.422;2023-06-26T02:29:49;15.50;99.90
23869;DHT22;12115;47.128;15.422;2023-06-26T02:32:16;15.50;99.90
23869;DHT22;12115;47.128;15.422;2023-06-26T02:34:43;15.50;99.90
23869;DHT22;12115;47.128;15.422;2023-06-26T02:37:10;15.40;99.90
23869;DHT22;12115;47.128;15.422;2023-06-26T02:39:38;15.40;99.90
23869;DHT22;12115;47.128;15.422;2023-06-26T02:42:06;15.50;99.90
23869;DHT22;12115;47.128;15.422;2023-06-26T02:44:33;15.40;99.90
23869;DHT22;12115;47.128;15.422;2023-06-26T02:47:01;15.40;99.90
23869;DHT22;12115;47.128;15.422;2023-06-26T02:49:28;15.30;99.90
23869;DHT22;12115;47.128;15.422;2023-06-26T02:51:55;15.30;99.90
23869;DHT22;12115;47.128;15.422;2023-06-26T02:54:26;15.20;99.90
23869;DHT22;12115;47.128;15.422;2023-06-26T02:56:57;15.30;99.90
23869;DHT22;12115;47.128;15.422;2023-06-26T02:59:27;15.30;99.90
23869;DHT22;12115;47.128;15.422;2023-06-26T03:01:55;15.20;99.90
23869;DHT22;12115;47.128;15.422;2023-06-26T03:04:29;15.20;99.90
23869;DHT22;12115;47.128;15.422;2023-06-26T03:06:56;15.20;99.90
23869;DHT22;12115;47.128;15.422;2023-06-26T03:09:23;15.20;99.90
23869;DHT22;12115;47.128;15.422;2023-06-26T03:11:50;15.10;99.90
23869;DHT22;12115;47.128;15.422;2023-06-26T03:14:20;15.10;99.90
23869;DHT22;12115;47.128;15.422;2023-06-26T03:16:47;15.10;99.90
23869;DHT22;12115;47.128;15.422;2023-06-26T03:19:14;15.00;99.90
23869;DHT22;12115;47.128;15.422;2023-06-26T03:21:59;15.00;99.90
23869;DHT22;12115;47.128;15.422;2023-06-26T03:24:27;15.00;99.90
23869;DHT22;12115;47.128;15.422;2023-06-26T03:26:54;15.00;99.90
23869;DHT22;12115;47.128;15.422;2023-06-26T03:29:21;15.00;99.90
23869;DHT22;12115;47.128;15.422;2023-06-26T03:31:48;15.00;99.90
23869;DHT22;12115;47.128;15.422;2023-06-26T03:34:15;14.90;99.90
23869;DHT22;12115;47.128;15.422;2023-06-26T03:36:42;14.90;99.90
23869;DHT22;12115;47.128;15.422;2023-06-26T03:39:10;14.80;99.90
23869;DHT22;12115;47.128;15.422;2023-06-26T03:41:37;14.80;99.90
23869;DHT22;12115;47.128;15.422;2023-06-26T03:44:04;14.80;99.90
23869;DHT22;12115;47.128;15.422;2023-06-26T03:46:40;14.80;99.90
23869;DHT22;12115;47.128;15.422;2023-06-26T03:49:07;14.80;99.90
23869;DHT22;12115;47.128;15.422;2023-06-26T03:51:37;14.80;99.90
23869;DHT22;12115;47.128;15.422;2023-06-26T03:54:04;14.80;99.90
23869;DHT22;12115;47.128;15.422;2023-06-26T03:56:31;14.80;99.90
23869;DHT22;12115;47.128;15.422;2023-06-26T03:58:58;14.80;99.90
23869;DHT22;12115;47.128;15.422;2023-06-26T04:01:26;14.80;99.90
23869;DHT22;12115;47.128;15.422;2023-06-26T04:03:54;14.80;99.90
23869;DHT22;12115;47.128;15.422;2023-06-26T04:06:21;14.80;99.90
23869;DHT22;12115;47.128;15.422;2023-06-26T04:08:48;14.80;99.90
23869;DHT22;12115;47.128;15.422;2023-06-26T04:11:15;14.80;99.90
23869;DHT22;12115;47.128;15.422;2023-06-26T04:13:42;14.70;99.90
23869;DHT22;12115;47.128;15.422;2023-06-26T04:16:09;14.80;99.90
23869;DHT22;12115;47.128;15.422;2023-06-26T04:18:38;14.80;99.90
23869;DHT22;12115;47.128;15.422;2023-06-26T04:21:12;14.80;99.90
23869;DHT22;12115;47.128;15.422;2023-06-26T04:23:40;14.80;99.90
23869;DHT22;12115;47.128;15.422;2023-06-26T04:26:07;14.80;99.90
23869;DHT22;12115;47.128;15.422;2023-06-26T04:28:35;14.80;99.90
23869;DHT22;12115;47.128;15.422;2023-06-26T04:31:03;14.80;99.90
23869;DHT22;12115;47.128;15.422;2023-06-26T04:33:32;14.90;99.90
23869;DHT22;12115;47.128;15.422;2023-06-26T04:35:59;14.90;99.90
23869;DHT22;12115;47.128;15.422;2023-06-26T04:38:31;14.90;99.90
23869;DHT22;12115;47.128;15.422;2023-06-26T04:40:58;15.00;99.90
23869;DHT22;12115;47.128;15.422;2023-06-26T04:43:25;15.00;99.90
23869;DHT22;12115;47.128;15.422;2023-06-26T04:45:52;15.10;99.90
23869;DHT22;12115;47.128;15.422;2023-06-26T04:48:19;15.20;99.90
23869;DHT22;12115;47.128;15.422;2023-06-26T04:50:46;15.20;99.90
23869;DHT22;12115;47.128;15.422;2023-06-26T04:53:21;15.20;99.90
23869;DHT22;12115;47.128;15.422;2023-06-26T04:55:52;15.30;99.90
23869;DHT22;12115;47.128;15.422;2023-06-26T04:58:20;15.30;99.90
23869;DHT22;12115;47.128;15.422;2023-06-26T05:00:47;15.40;99.90
23869;DHT22;12115;47.128;15.422;2023-06-26T05:03:16;15.40;99.90
23869;DHT22;12115;47.128;15.422;2023-06-26T05:05:44;15.50;99.90
23869;DHT22;12115;47.128;15.422;2023-06-26T05:10:42;15.60;99.90
23869;DHT22;12115;47.128;15.422;2023-06-26T05:13:09;15.60;99.90
23869;DHT22;12115;47.128;15.422;2023-06-26T05:15:37;15.80;99.90
23869;DHT22;12115;47.128;15.422;2023-06-26T05:18:04;15.90;99.90
23869;DHT22;12115;47.128;15.422;2023-06-26T05:20:33;16.00;99.90
23869;DHT22;12115;47.128;15.422;2023-06-26T05:23:02;16.00;99.90
23869;DHT22;12115;47.128;15.422;2023-06-26T05:25:30;16.10;99.90
23869;DHT22;12115;47.128;15.422;2023-06-26T05:27:58;16.20;99.90
23869;DHT22;12115;47.128;15.422;2023-06-26T05:30:26;16.20;99.90
23869;DHT22;12115;47.128;15.422;2023-06-26T05:32:54;16.30;99.90
23869;DHT22;12115;47.128;15.422;2023-06-26T05:35:21;16.30;99.90
23869;DHT22;12115;47.128;15.422;2023-06-26T05:37:50;16.40;99.90
23869;DHT22;12115;47.128;15.422;2023-06-26T05:40:20;16.50;99.90
23869;DHT22;12115;47.128;15.422;2023-06-26T05:42:47;16.70;99.90
23869;DHT22;12115;47.128;15.422;2023-06-26T05:45:15;16.70;99.90
23869;DHT22;12115;47.128;15.422;2023-06-26T05:47:42;16.80;99.90
23869;DHT22;12115;47.128;15.422;2023-06-26T05:50:10;16.90;99.90
23869;DHT22;12115;47.128;15.422;2023-06-26T05:52:37;17.00;99.90
23869;DHT22;12115;47.128;15.422;2023-06-26T05:55:06;17.20;99.90
23869;DHT22;12115;47.128;15.422;2023-06-26T05:57:34;17.30;99.90
23869;DHT22;12115;47.128;15.422;2023-06-26T06:00:02;17.50;99.90
23869;DHT22;12115;47.128;15.422;2023-06-26T06:02:39;17.70;99.90
23869;DHT22;12115;47.128;15.422;2023-06-26T06:05:08;17.80;99.90
23869;DHT22;12115;47.128;15.422;2023-06-26T06:07:36;17.90;99.90
23869;DHT22;12115;47.128;15.422;2023-06-26T06:10:04;18.00;99.90
23869;DHT22;12115;47.128;15.422;2023-06-26T06:12:31;18.20;99.90
23869;DHT22;12115;47.128;15.422;2023-06-26T06:14:58;18.30;99.90
23869;DHT22;12115;47.128;15.422;2023-06-26T06:17:25;18.40;99.90
23869;DHT22;12115;47.128;15.422;2023-06-26T06:19:52;18.50;99.90
23869;DHT22;12115;47.128;15.422;2023-06-26T06:22:19;18.60;99.90
23869;DHT22;12115;47.128;15.422;2023-06-26T06:24:46;18.70;99.90
23869;DHT22;12115;47.128;15.422;2023-06-26T06:27:13;18.70;99.90
23869;DHT22;12115;47.128;15.422;2023-06-26T06:29:41;18.80;99.90
23869;DHT22;12115;47.128;15.422;2023-06-26T06:32:08;19.00;99.90
23869;DHT22;12115;47.128;15.422;2023-06-26T06:34:35;19.10;99.90
23869;DHT22;12115;47.128;15.422;2023-06-26T06:37:03;19.20;99.90
23869;DHT22;12115;47.128;15.422;2023-06-26T06:39:30;19.40;99.90
23869;DHT22;12115;47.128;15.422;2023-06-26T06:41:57;19.50;99.90
23869;DHT22;12115;47.128;15.422;2023-06-26T06:44:24;19.50;99.90
23869;DHT22;12115;47.128;15.422;2023-06-26T06:46:51;19.60;99.90
23869;DHT22;12115;47.128;15.422;2023-06-26T06:49:19;19.70;99.90
23869;DHT22;12115;47.128;15.422;2023-06-26T06:51:46;19.80;99.90
23869;DHT22;12115;47.128;15.422;2023-06-26T06:54:15;19.90;99.90
23869;DHT22;12115;47.128;15.422;2023-06-26T06:56:43;19.90;99.90
23869;DHT22;12115;47.128;15.422;2023-06-26T06:59:10;20.10;99.90
23869;DHT22;12115;47.128;15.422;2023-06-26T07:01:39;20.30;99.90
23869;DHT22;12115;47.128;15.422;2023-06-26T07:04:06;20.50;99.90
23869;DHT22;12115;47.128;15.422;2023-06-26T07:06:33;20.60;99.90
23869;DHT22;12115;47.128;15.422;2023-06-26T07:09:01;20.60;99.90
23869;DHT22;12115;47.128;15.422;2023-06-26T07:11:28;20.60;99.90
23869;DHT22;12115;47.128;15.422;2023-06-26T07:13:55;20.70;99.90
23869;DHT22;12115;47.128;15.422;2023-06-26T07:16:22;20.90;99.90
23869;DHT22;12115;47.128;15.422;2023-06-26T07:18:49;21.00;99.90
23869;DHT22;12115;47.128;15.422;2023-06-26T07:21:17;20.90;99.90
23869;DHT22;12115;47.128;15.422;2023-06-26T07:23:44;20.90;99.90
23869;DHT22;12115;47.128;15.422;2023-06-26T07:26:11;21.00;99.90
23869;DHT22;12115;47.128;15.422;2023-06-26T07:28:38;21.30;99.90
23869;DHT22;12115;47.128;15.422;2023-06-26T07:31:05;21.30;99.90
23869;DHT22;12115;47.128;15.422;2023-06-26T07:33:32;21.40;99.90
23869;DHT22;12115;47.128;15.422;2023-06-26T07:35:59;21.40;99.90
23869;DHT22;12115;47.128;15.422;2023-06-26T07:38:26;21.40;99.90
23869;DHT22;12115;47.128;15.422;2023-06-26T07:40:53;21.60;99.90
23869;DHT22;12115;47.128;15.422;2023-06-26T07:43:20;21.70;99.90
23869;DHT22;12115;47.128;15.422;2023-06-26T07:45:47;21.70;99.90
23869;DHT22;12115;47.128;15.422;2023-06-26T07:48:14;21.70;99.90
23869;DHT22;12115;47.128;15.422;2023-06-26T07:50:41;21.80;99.90
23869;DHT22;12115;47.128;15.422;2023-06-26T07:53:08;21.90;99.90
23869;DHT22;12115;47.128;15.422;2023-06-26T07:55:35;22.00;99.90
23869;DHT22;12115;47.128;15.422;2023-06-26T07:58:02;22.10;99.90
23869;DHT22;12115;47.128;15.422;2023-06-26T08:00:29;22.20;99.90
23869;DHT22;12115;47.128;15.422;2023-06-26T08:02:56;22.10;99.90
23869;DHT22;12115;47.128;15.422;2023-06-26T08:05:23;22.20;99.90
23869;DHT22;12115;47.128;15.422;2023-06-26T08:07:50;22.20;99.90
23869;DHT22;12115;47.128;15.422;2023-06-26T08:10:17;22.20;99.90
23869;DHT22;12115;47.128;15.422;2023-06-26T08:12:44;22.30;99.90
23869;DHT22;12115;47.128;15.422;2023-06-26T08:15:12;22.40;99.90
23869;DHT22;12115;47.128;15.422;2023-06-26T08:17:39;22.60;99.90
23869;DHT22;12115;47.128;15.422;2023-06-26T08:20:06;22.70;99.90
23869;DHT22;12115;47.128;15.422;2023-06-26T08:22:35;22.70;99.90
23869;DHT22;12115;47.128;15.422;2023-06-26T08:25:03;22.80;99.90
23869;DHT22;12115;47.128;15.422;2023-06-26T08:27:32;22.80;99.90
23869;DHT22;12115;47.128;15.422;2023-06-26T08:29:59;23.00;99.90
23869;DHT22;12115;47.128;15.422;2023-06-26T08:32:26;23.10;99.90
23869;DHT22;12115;47.128;15.422;2023-06-26T08:34:53;23.10;99.90
23869;DHT22;12115;47.128;15.422;2023-06-26T08:37:20;23.10;99.90
23869;DHT22;12115;47.128;15.422;2023-06-26T08:39:48;23.10;99.90
23869;DHT22;12115;47.128;15.422;2023-06-26T08:42:15;23.20;99.90
23869;DHT22;12115;47.128;15.422;2023-06-26T08:44:42;23.20;99.90
23869;DHT22;12115;47.128;15.422;2023-06-26T08:47:27;23.30;99.90
23869;DHT22;12115;47.128;15.422;2023-06-26T08:50:04;23.40;99.90
23869;DHT22;12115;47.128;15.422;2023-06-26T08:52:46;23.40;99.90
23869;DHT22;12115;47.128;15.422;2023-06-26T08:55:16;23.50;99.90
23869;DHT22;12115;47.128;15.422;2023-06-26T08:57:43;23.60;99.90
23869;DHT22;12115;47.128;15.422;2023-06-26T09:00:13;23.60;99.90
23869;DHT22;12115;47.128;15.422;2023-06-26T09:02:41;23.60;99.90
23869;DHT22;12115;47.128;15.422;2023-06-26T09:05:11;23.70;99.90
23869;DHT22;12115;47.128;15.422;2023-06-26T09:07:38;23.80;99.90
23869;DHT22;12115;47.128;15.422;2023-06-26T09:10:06;23.90;99.90
23869;DHT22;12115;47.128;15.422;2023-06-26T09:12:33;23.90;99.90
23869;DHT22;12115;47.128;15.422;2023-06-26T09:15:01;24.00;99.90
23869;DHT22;12115;47.128;15.422;2023-06-26T09:17:32;24.20;99.90
23869;DHT22;12115;47.128;15.422;2023-06-26T09:20:00;24.30;99.90
23869;DHT22;12115;47.128;15.422;2023-06-26T09:22:27;24.30;99.90
23869;DHT22;12115;47.128;15.422;2023-06-26T09:24:54;24.50;99.90
23869;DHT22;12115;47.128;15.422;2023-06-26T09:27:21;24.60;99.90
23869;DHT22;12115;47.128;15.422;2023-06-26T09:29:50;24.80;99.90
23869;DHT22;12115;47.128;15.422;2023-06-26T09:32:17;24.90;99.90
23869;DHT22;12115;47.128;15.422;2023-06-26T09:34:44;25.00;99.90
23869;DHT22;12115;47.128;15.422;2023-06-26T09:37:12;25.00;99.90
23869;DHT22;12115;47.128;15.422;2023-06-26T09:39:40;25.10;99.90
23869;DHT22;12115;47.128;15.422;2023-06-26T09:42:07;25.10;99.90
23869;DHT22;12115;47.128;15.422;2023-06-26T09:44:34;25.20;99.90
23869;DHT22;12115;47.128;15.422;2023-06-26T09:47:02;25.30;99.90
23869;DHT22;12115;47.128;15.422;2023-06-26T09:49:31;25.40;99.40
23869;DHT22;12115;47.128;15.422;2023-06-26T09:52:00;25.50;99.90
23869;DHT22;12115;47.128;15.422;2023-06-26T09:54:28;25.50;99.80
23869;DHT22;12115;47.128;15.422;2023-06-26T09:57:14;25.50;98.90
23869;DHT22;12115;47.128;15.422;2023-06-26T09:59:42;25.60;98.60
23869;DHT22;12115;47.128;15.422;2023-06-26T10:02:12;25.60;98.90
23869;DHT22;12115;47.128;15.422;2023-06-26T10:04:39;25.70;98.80
23869;DHT22;12115;47.128;15.422;2023-06-26T10:07:11;25.70;99.10
23869;DHT22;12115;47.128;15.422;2023-06-26T10:09:40;25.80;98.30
23869;DHT22;12115;47.128;15.422;2023-06-26T10:12:19;25.90;98.00
23869;DHT22;12115;47.128;15.422;2023-06-26T10:14:47;25.90;98.20
23869;DHT22;12115;47.128;15.422;2023-06-26T10:17:17;26.00;98.10
23869;DHT22;12115;47.128;15.422;2023-06-26T10:19:47;26.10;98.20
23869;DHT22;12115;47.128;15.422;2023-06-26T10:22:20;26.30;96.50
23869;DHT22;12115;47.128;15.422;2023-06-26T10:24:49;26.30;96.30
23869;DHT22;12115;47.128;15.422;2023-06-26T10:27:19;26.30;95.50
23869;DHT22;12115;47.128;15.422;2023-06-26T10:29:49;26.40;96.00
23869;DHT22;12115;47.128;15.422;2023-06-26T10:32:18;26.50;97.30
23869;DHT22;12115;47.128;15.422;2023-06-26T10:34:47;26.60;96.10
23869;DHT22;12115;47.128;15.422;2023-06-26T10:37:14;26.70;96.30
23869;DHT22;12115;47.128;15.422;2023-06-26T10:39:49;26.70;97.30
23869;DHT22;12115;47.128;15.422;2023-06-26T10:42:17;26.80;97.90
23869;DHT22;12115;47.128;15.422;2023-06-26T10:44:47;26.70;92.80
23869;DHT22;12115;47.128;15.422;2023-06-26T10:47:30;26.40;93.40
23869;DHT22;12115;47.128;15.422;2023-06-26T10:50:32;26.50;94.90
23869;DHT22;12115;47.128;15.422;2023-06-26T10:53:15;26.70;93.60
23869;DHT22;12115;47.128;15.422;2023-06-26T10:56:03;26.70;93.80
23869;DHT22;12115;47.128;15.422;2023-06-26T11:03:45;27.00;93.80
23869;DHT22;12115;47.128;15.422;2023-06-26T11:06:14;27.10;94.60
23869;DHT22;12115;47.128;15.422;2023-06-26T11:11:12;27.40;93.80
23869;DHT22;12115;47.128;15.422;2023-06-26T11:13:40;27.40;94.10
23869;DHT22;12115;47.128;15.422;2023-06-26T11:16:07;27.60;94.20
23869;DHT22;12115;47.128;15.422;2023-06-26T11:18:35;27.60;93.60
23869;DHT22;12115;47.128;15.422;2023-06-26T11:21:09;27.60;94.30
23869;DHT22;12115;47.128;15.422;2023-06-26T11:23:37;27.70;92.40
23869;DHT22;12115;47.128;15.422;2023-06-26T11:28:53;27.70;92.50
23869;DHT22;12115;47.128;15.422;2023-06-26T11:31:30;27.70;92.60
23869;DHT22;12115;47.128;15.422;2023-06-26T11:34:03;27.50;91.40
23869;DHT22;12115;47.128;15.422;2023-06-26T11:36:31;27.40;92.70
23869;DHT22;12115;47.128;15.422;2023-06-26T11:39:00;27.30;91.80
23869;DHT22;12115;47.128;15.422;2023-06-26T11:41:29;27.20;92.80
23869;DHT22;12115;47.128;15.422;2023-06-26T11:44:01;27.10;93.40
23869;DHT22;12115;47.128;15.422;2023-06-26T11:46:31;27.00;94.30
23869;DHT22;12115;47.128;15.422;2023-06-26T11:48:58;27.10;94.20
23869;DHT22;12115;47.128;15.422;2023-06-26T11:51:29;27.10;94.30
23869;DHT22;12115;47.128;15.422;2023-06-26T11:53:56;27.20;94.70
23869;DHT22;12115;47.128;15.422;2023-06-26T11:56:23;27.20;95.40
23869;DHT22;12115;47.128;15.422;2023-06-26T11:58:59;27.40;95.80
23869;DHT22;12115;47.128;15.422;2023-06-26T12:01:35;27.40;94.60
23869;DHT22;12115;47.128;15.422;2023-06-26T12:04:05;27.30;94.40
23869;DHT22;12115;47.128;15.422;2023-06-26T12:06:34;27.30;94.80
23869;DHT22;12115;47.128;15.422;2023-06-26T12:09:03;27.40;95.50
23869;DHT22;12115;47.128;15.422;2023-06-26T12:11:33;27.50;95.60
23869;DHT22;12115;47.128;15.422;2023-06-26T12:14:01;27.50;95.20
23869;DHT22;12115;47.128;15.422;2023-06-26T12:16:30;27.50;94.70
23869;DHT22;12115;47.128;15.422;2023-06-26T12:19:05;27.40;94.50
23869;DHT22;12115;47.128;15.422;2023-06-26T12:24:12;27.50;95.40
23869;DHT22;12115;47.128;15.422;2023-06-26T12:26:51;27.40;95.30
23869;DHT22;12115;47.128;15.422;2023-06-26T12:29:21;27.40;95.20
23869;DHT22;12115;47.128;15.422;2023-06-26T12:31:52;27.40;94.70
23869;DHT22;12115;47.128;15.422;2023-06-26T12:34:27;27.30;94.40
23869;DHT22;12115;47.128;15.422;2023-06-26T12:37:00;27.40;95.10
23869;DHT22;12115;47.128;15.422;2023-06-26T12:39:27;27.30;94.80
23869;DHT22;12115;47.128;15.422;2023-06-26T12:41:57;27.40;94.50
23869;DHT22;12115;47.128;15.422;2023-06-26T12:44:30;27.40;95.60
23869;DHT22;12115;47.128;15.422;2023-06-26T12:46:59;27.50;94.50
23869;DHT22;12115;47.128;15.422;2023-06-26T12:49:41;27.50;94.40
23869;DHT22;12115;47.128;15.422;2023-06-26T12:52:13;27.40;95.00
23869;DHT22;12115;47.128;15.422;2023-06-26T12:54:51;27.40;94.70
23869;DHT22;12115;47.128;15.422;2023-06-26T12:57:18;27.30;94.50
23869;DHT22;12115;47.128;15.422;2023-06-26T12:59:45;27.40;94.50
23869;DHT22;12115;47.128;15.422;2023-06-26T13:02:12;27.40;93.90
23869;DHT22;12115;47.128;15.422;2023-06-26T13:04:41;27.30;93.80
23869;DHT22;12115;47.128;15.422;2023-06-26T13:07:08;27.30;94.20
23869;DHT22;12115;47.128;15.422;2023-06-26T13:09:36;27.40;94.70
23869;DHT22;12115;47.128;15.422;2023-06-26T13:12:07;27.40;94.40
23869;DHT22;12115;47.128;15.422;2023-06-26T13:14:35;27.40;95.00
23869;DHT22;12115;47.128;15.422;2023-06-26T13:17:02;27.50;93.80
23869;DHT22;12115;47.128;15.422;2023-06-26T13:19:32;27.50;94.50
23869;DHT22;12115;47.128;15.422;2023-06-26T13:22:03;27.50;93.50
23869;DHT22;12115;47.128;15.422;2023-06-26T13:24:30;27.60;93.70
23869;DHT22;12115;47.128;15.422;2023-06-26T13:26:57;27.60;94.70
23869;DHT22;12115;47.128;15.422;2023-06-26T13:29:25;27.70;93.70
23869;DHT22;12115;47.128;15.422;2023-06-26T13:31:52;27.80;93.80
23869;DHT22;12115;47.128;15.422;2023-06-26T13:34:21;27.80;93.00
23869;DHT22;12115;47.128;15.422;2023-06-26T13:36:50;27.80;93.60
23869;DHT22;12115;47.128;15.422;2023-06-26T13:39:17;27.80;92.50
23869;DHT22;12115;47.128;15.422;2023-06-26T13:41:45;27.80;92.60
23869;DHT22;12115;47.128;15.422;2023-06-26T13:44:12;27.70;92.30
23869;DHT22;12115;47.128;15.422;2023-06-26T13:46:57;27.80;94.00
23869;DHT22;12115;47.128;15.422;2023-06-26T13:49:25;27.90;92.90
23869;DHT22;12115;47.128;15.422;2023-06-26T13:51:52;27.80;92.70
23869;DHT22;12115;47.128;15.422;2023-06-26T13:54:19;27.90;93.90
23869;DHT22;12115;47.128;15.422;2023-06-26T13:56:46;28.00;94.70
23869;DHT22;12115;47.128;15.422;2023-06-26T13:59:14;28.10;94.30
23869;DHT22;12115;47.128;15.422;2023-06-26T14:01:41;28.10;92.30
23869;DHT22;12115;47.128;15.422;2023-06-26T14:04:11;28.10;92.30
23869;DHT22;12115;47.128;15.422;2023-06-26T14:06:38;28.10;92.60
23869;DHT22;12115;47.128;15.422;2023-06-26T14:09:06;28.00;92.20
23869;DHT22;12115;47.128;15.422;2023-06-26T14:11:34;28.00;92.40
23869;DHT22;12115;47.128;15.422;2023-06-26T14:14:01;28.10;92.60
23869;DHT22;12115;47.128;15.422;2023-06-26T14:16:29;28.20;94.30
23869;DHT22;12115;47.128;15.422;2023-06-26T14:18:56;28.30;93.10
23869;DHT22;12115;47.128;15.422;2023-06-26T14:21:24;28.30;92.10
23869;DHT22;12115;47.128;15.422;2023-06-26T14:23:51;28.20;92.20
23869;DHT22;12115;47.128;15.422;2023-06-26T14:26:18;28.20;91.90
23869;DHT22;12115;47.128;15.422;2023-06-26T14:28:46;28.30;92.90
23869;DHT22;12115;47.128;15.422;2023-06-26T14:31:13;28.30;92.50
23869;DHT22;12115;47.128;15.422;2023-06-26T14:33:41;28.30;92.20
23869;DHT22;12115;47.128;15.422;2023-06-26T14:36:08;28.20;92.10
23869;DHT22;12115;47.128;15.422;2023-06-26T14:38:35;28.30;92.50
23869;DHT22;12115;47.128;15.422;2023-06-26T14:41:02;28.40;93.00
23869;DHT22;12115;47.128;15.422;2023-06-26T14:43:30;28.40;92.30
23869;DHT22;12115;47.128;15.422;2023-06-26T14:45:58;28.50;92.00
23869;DHT22;12115;47.128;15.422;2023-06-26T14:48:25;28.40;92.00
23869;DHT22;12115;47.128;15.422;2023-06-26T14:50:56;28.40;91.70
23869;DHT22;12115;47.128;15.422;2023-06-26T14:53:23;28.40;92.00
23869;DHT22;12115;47.128;15.422;2023-06-26T14:55:51;28.40;92.40
23869;DHT22;12115;47.128;15.422;2023-06-26T14:58:19;28.50;92.00
23869;DHT22;12115;47.128;15.422;2023-06-26T15:00:46;28.30;91.40
23869;DHT22;12115;47.128;15.422;2023-06-26T15:03:14;28.30;92.00
23869;DHT22;12115;47.128;15.422;2023-06-26T15:05:41;28.20;92.20
23869;DHT22;12115;47.128;15.422;2023-06-26T15:08:08;28.20;92.20
23869;DHT22;12115;47.128;15.422;2023-06-26T15:10:37;28.20;92.10
23869;DHT22;12115;47.128;15.422;2023-06-26T15:13:05;28.20;92.00
23869;DHT22;12115;47.128;15.422;2023-06-26T15:15:33;28.20;91.70
23869;DHT22;12115;47.128;15.422;2023-06-26T15:18:00;28.20;92.80
23869;DHT22;12115;47.128;15.422;2023-06-26T15:20:27;28.10;91.60
23869;DHT22;12115;47.128;15.422;2023-06-26T15:22:54;28.10;91.80
23869;DHT22;12115;47.128;15.422;2023-06-26T15:25:21;28.10;92.10
23869;DHT22;12115;47.128;15.422;2023-06-26T15:27:49;28.20;92.20
23869;DHT22;12115;47.128;15.422;2023-06-26T15:30:17;28.20;92.20
23869;DHT22;12115;47.128;15.422;2023-06-26T15:32:44;28.20;91.60
23869;DHT22;12115;47.128;15.422;2023-06-26T15:35:11;28.10;91.50
23869;DHT22;12115;47.128;15.422;2023-06-26T15:37:38;28.10;91.40
23869;DHT22;12115;47.128;15.422;2023-06-26T15:40:06;28.10;91.40